sensor_id;sensor_type;location;lat;lon;timestamp;P1;durP1;ratioP1;P2;durP2;ratioP2
18623;SDS011;9441;51.420;7.036;2022-09-27T00:00:31;17.60;;;5.47;;
18623;SDS011;9441;51.420;7.036;2022-09-27T00:01:33;16.87;;;6.37;;
18623;SDS011;9441;51.420;7.036;2022-09-27T00:02:35;17.97;;;6.27;;
18623;SDS011;9441;51.420;7.036;2022-09-27T00:03:37;25.60;;;7.87;;
18623;SDS011;9441;51.420;7.036;2022-09-27T00:04:38;15.63;;;7.03;;
18623;SDS011;9441;51.420;7.036;2022-09-27T00:05:40;20.10;;;7.03;;
18623;SDS011;9441;51.420;7.036;2022-09-27T00:06:41;16.77;;;7.20;;
18623;SDS011;9441;51.420;7.036;2022-09-27T00:07:43;17.83;;;6.57;;
18623;SDS011;9441;51.420;7.036;2022-09-27T00:08:45;22.43;;;7.67;;
18623;SDS011;9441;51.420;7.036;2022-09-27T00:09:47;21.30;;;7.57;;
18623;SDS011;9441;51.420;7.036;2022-09-27T00:10:49;24.07;;;8.47;;
18623;SDS011;9441;51.420;7.036;2022-09-27T00:11:59;18.20;;;8.30;;
18623;SDS011;9441;51.420;7.036;2022-09-27T00:13:02;22.53;;;8.77;;
18623;SDS011;9441;51.420;7.036;2022-09-27T00:14:03;26.23;;;10.20;;
18623;SDS011;9441;51.420;7.036;2022-09-27T00:15:07;25.77;;;10.20;;
18623;SDS011;9441;51.420;7.036;2022-09-27T00:16:09;31.93;;;10.93;;
18623;SDS011;9441;51.420;7.036;2022-09-27T00:17:11;22.10;;;10.53;;
18623;SDS011;9441;51.420;7.036;2022-09-27T00:18:13;23.37;;;10.93;;
18623;SDS011;9441;51.420;7.036;2022-09-27T00:19:16;23.90;;;11.70;;
18623;SDS011;9441;51.420;7.036;2022-09-27T00:20:21;29.93;;;11.73;;
18623;SDS011;9441;51.420;7.036;2022-09-27T00:21:23;22.47;;;11.07;;
18623;SDS011;9441;51.420;7.036;2022-09-27T00:22:24;23.80;;;11.40;;
18623;SDS011;9441;51.420;7.036;2022-09-27T00:23:27;24.53;;;11.33;;
18623;SDS011;9441;51.420;7.036;2022-09-27T00:24:28;22.17;;;10.33;;
18623;SDS011;9441;51.420;7.036;2022-09-27T00:25:31;21.27;;;9.13;;
18623;SDS011;9441;51.420;7.036;2022-09-27T00:26:33;27.27;;;10.50;;
18623;SDS011;9441;51.420;7.036;2022-09-27T00:27:36;21.70;;;10.10;;
18623;SDS011;9441;51.420;7.036;2022-09-27T00:28:37;22.37;;;10.47;;
18623;SDS011;9441;51.420;7.036;2022-09-27T00:29:40;27.57;;;10.70;;
18623;SDS011;9441;51.420;7.036;2022-09-27T00:30:41;24.40;;;11.73;;
18623;SDS011;9441;51.420;7.036;2022-09-27T00:31:43;24.57;;;12.00;;
18623;SDS011;9441;51.420;7.036;2022-09-27T00:32:45;30.33;;;12.10;;
18623;SDS011;9441;51.420;7.036;2022-09-27T00:33:48;24.80;;;11.47;;
18623;SDS011;9441;51.420;7.036;2022-09-27T00:34:50;28.67;;;12.10;;
18623;SDS011;9441;51.420;7.036;2022-09-27T00:35:52;28.57;;;12.60;;
18623;SDS011;9441;51.420;7.036;2022-09-27T00:36:54;28.57;;;12.17;;
18623;SDS011;9441;51.420;7.036;2022-09-27T00:37:56;27.80;;;12.50;;
18623;SDS011;9441;51.420;7.036;2022-09-27T00:38:57;30.73;;;11.13;;
18623;SDS011;9441;51.420;7.036;2022-09-27T00:40:00;28.50;;;12.10;;
18623;SDS011;9441;51.420;7.036;2022-09-27T00:41:02;32.77;;;11.83;;
18623;SDS011;9441;51.420;7.036;2022-09-27T00:42:07;27.27;;;9.97;;
18623;SDS011;9441;51.420;7.036;2022-09-27T00:43:12;25.90;;;9.77;;
18623;SDS011;9441;51.420;7.036;2022-09-27T00:45:56;19.53;;;8.57;;
18623;SDS011;9441;51.420;7.036;2022-09-27T00:47:05;24.63;;;8.80;;
18623;SDS011;9441;51.420;7.036;2022-09-27T00:48:11;19.03;;;8.00;;
18623;SDS011;9441;51.420;7.036;2022-09-27T00:49:20;20.33;;;8.03;;
18623;SDS011;9441;51.420;7.036;2022-09-27T00:50:25;24.40;;;7.70;;
18623;SDS011;9441;51.420;7.036;2022-09-27T00:51:30;21.10;;;8.30;;
18623;SDS011;9441;51.420;7.036;2022-09-27T00:52:35;23.23;;;8.10;;
18623;SDS011;9441;51.420;7.036;2022-09-27T00:53:44;22.63;;;8.47;;
18623;SDS011;9441;51.420;7.036;2022-09-27T00:54:51;21.67;;;8.10;;
18623;SDS011;9441;51.420;7.036;2022-09-27T00:55:58;21.07;;;8.40;;
18623;SDS011;9441;51.420;7.036;2022-09-27T00:57:03;24.77;;;8.23;;
18623;SDS011;9441;51.420;7.036;2022-09-27T00:58:06;19.60;;;8.10;;
18623;SDS011;9441;51.420;7.036;2022-09-27T00:59:11;18.50;;;8.10;;
18623;SDS011;9441;51.420;7.036;2022-09-27T01:00:16;26.83;;;7.87;;
18623;SDS011;9441;51.420;7.036;2022-09-27T01:01:18;16.87;;;8.10;;
18623;SDS011;9441;51.420;7.036;2022-09-27T01:02:19;20.40;;;7.60;;
18623;SDS011;9441;51.420;7.036;2022-09-27T01:03:23;20.40;;;8.13;;
18623;SDS011;9441;51.420;7.036;2022-09-27T01:04:29;17.93;;;7.33;;
18623;SDS011;9441;51.420;7.036;2022-09-27T01:05:32;21.60;;;8.07;;
18623;SDS011;9441;51.420;7.036;2022-09-27T01:06:34;18.97;;;7.50;;
18623;SDS011;9441;51.420;7.036;2022-09-27T01:07:37;20.57;;;7.43;;
18623;SDS011;9441;51.420;7.036;2022-09-27T01:08:38;18.70;;;7.77;;
18623;SDS011;9441;51.420;7.036;2022-09-27T01:09:40;19.80;;;8.10;;
18623;SDS011;9441;51.420;7.036;2022-09-27T01:10:45;23.47;;;8.87;;
18623;SDS011;9441;51.420;7.036;2022-09-27T01:12:00;20.87;;;8.90;;
18623;SDS011;9441;51.420;7.036;2022-09-27T01:13:16;17.53;;;8.50;;
18623;SDS011;9441;51.420;7.036;2022-09-27T01:14:31;22.37;;;9.07;;
18623;SDS011;9441;51.420;7.036;2022-09-27T01:15:47;18.47;;;9.50;;
18623;SDS011;9441;51.420;7.036;2022-09-27T01:16:54;20.90;;;9.43;;
18623;SDS011;9441;51.420;7.036;2022-09-27T01:18:10;21.30;;;10.90;;
18623;SDS011;9441;51.420;7.036;2022-09-27T01:19:25;29.77;;;11.57;;
18623;SDS011;9441;51.420;7.036;2022-09-27T01:20:48;20.07;;;11.50;;
18623;SDS011;9441;51.420;7.036;2022-09-27T01:22:21;22.37;;;11.90;;
18623;SDS011;9441;51.420;7.036;2022-09-27T01:23:33;28.33;;;12.97;;
18623;SDS011;9441;51.420;7.036;2022-09-27T01:24:55;24.30;;;12.20;;
18623;SDS011;9441;51.420;7.036;2022-09-27T01:26:10;26.27;;;13.50;;
18623;SDS011;9441;51.420;7.036;2022-09-27T01:27:20;29.57;;;13.57;;
18623;SDS011;9441;51.420;7.036;2022-09-27T01:28:44;30.97;;;14.73;;
18623;SDS011;9441;51.420;7.036;2022-09-27T01:30:10;30.27;;;14.47;;
18623;SDS011;9441;51.420;7.036;2022-09-27T01:31:31;30.67;;;15.47;;
18623;SDS011;9441;51.420;7.036;2022-09-27T01:32:40;36.40;;;16.00;;
18623;SDS011;9441;51.420;7.036;2022-09-27T01:33:52;34.47;;;16.03;;
18623;SDS011;9441;51.420;7.036;2022-09-27T01:35:02;32.27;;;15.80;;
18623;SDS011;9441;51.420;7.036;2022-09-27T01:36:08;27.07;;;15.50;;
18623;SDS011;9441;51.420;7.036;2022-09-27T01:37:20;33.20;;;15.23;;
18623;SDS011;9441;51.420;7.036;2022-09-27T01:38:29;35.63;;;15.17;;
18623;SDS011;9441;51.420;7.036;2022-09-27T01:39:40;31.33;;;14.73;;
18623;SDS011;9441;51.420;7.036;2022-09-27T01:41:05;36.33;;;14.60;;
18623;SDS011;9441;51.420;7.036;2022-09-27T01:42:14;29.03;;;14.80;;
18623;SDS011;9441;51.420;7.036;2022-09-27T01:43:27;31.40;;;15.27;;
18623;SDS011;9441;51.420;7.036;2022-09-27T01:44:34;27.90;;;15.13;;
18623;SDS011;9441;51.420;7.036;2022-09-27T01:45:46;29.47;;;14.50;;
18623;SDS011;9441;51.420;7.036;2022-09-27T01:47:09;35.00;;;15.23;;
18623;SDS011;9441;51.420;7.036;2022-09-27T01:48:41;31.10;;;14.33;;
18623;SDS011;9441;51.420;7.036;2022-09-27T01:49:54;31.37;;;14.93;;
18623;SDS011;9441;51.420;7.036;2022-09-27T01:51:01;31.97;;;14.07;;
18623;SDS011;9441;51.420;7.036;2022-09-27T01:52:05;31.97;;;14.17;;
18623;SDS011;9441;51.420;7.036;2022-09-27T01:53:11;34.73;;;14.73;;
18623;SDS011;9441;51.420;7.036;2022-09-27T01:54:39;30.03;;;14.37;;
18623;SDS011;9441;51.420;7.036;2022-09-27T01:55:57;27.70;;;13.70;;
18623;SDS011;9441;51.420;7.036;2022-09-27T01:57:24;32.70;;;13.97;;
18623;SDS011;9441;51.420;7.036;2022-09-27T01:58:31;26.63;;;13.50;;
18623;SDS011;9441;51.420;7.036;2022-09-27T01:59:39;27.20;;;14.00;;
18623;SDS011;9441;51.420;7.036;2022-09-27T02:01:09;29.23;;;13.87;;
18623;SDS011;9441;51.420;7.036;2022-09-27T02:02:13;28.03;;;13.13;;
18623;SDS011;9441;51.420;7.036;2022-09-27T02:03:48;26.47;;;13.73;;
18623;SDS011;9441;51.420;7.036;2022-09-27T02:05:10;25.93;;;13.30;;
18623;SDS011;9441;51.420;7.036;2022-09-27T02:06:18;30.47;;;13.87;;
18623;SDS011;9441;51.420;7.036;2022-09-27T02:07:31;27.00;;;13.20;;
18623;SDS011;9441;51.420;7.036;2022-09-27T02:08:38;30.07;;;13.70;;
18623;SDS011;9441;51.420;7.036;2022-09-27T02:10:03;28.23;;;13.13;;
18623;SDS011;9441;51.420;7.036;2022-09-27T02:11:17;27.10;;;13.33;;
18623;SDS011;9441;51.420;7.036;2022-09-27T02:12:30;27.53;;;12.37;;
18623;SDS011;9441;51.420;7.036;2022-09-27T02:13:37;27.70;;;12.77;;
18623;SDS011;9441;51.420;7.036;2022-09-27T02:15:09;24.03;;;11.20;;
18623;SDS011;9441;51.420;7.036;2022-09-27T02:16:20;26.90;;;11.70;;
18623;SDS011;9441;51.420;7.036;2022-09-27T02:17:28;32.97;;;12.17;;
18623;SDS011;9441;51.420;7.036;2022-09-27T02:18:35;28.43;;;12.17;;
18623;SDS011;9441;51.420;7.036;2022-09-27T02:19:49;29.50;;;13.03;;
18623;SDS011;9441;51.420;7.036;2022-09-27T02:21:06;24.23;;;12.33;;
18623;SDS011;9441;51.420;7.036;2022-09-27T02:22:15;24.77;;;11.17;;
18623;SDS011;9441;51.420;7.036;2022-09-27T02:23:21;24.60;;;11.37;;
18623;SDS011;9441;51.420;7.036;2022-09-27T02:24:37;21.10;;;11.23;;
18623;SDS011;9441;51.420;7.036;2022-09-27T02:25:46;21.03;;;10.83;;
18623;SDS011;9441;51.420;7.036;2022-09-27T02:26:55;21.83;;;10.00;;
18623;SDS011;9441;51.420;7.036;2022-09-27T02:28:05;24.70;;;10.47;;
18623;SDS011;9441;51.420;7.036;2022-09-27T02:29:15;21.63;;;10.87;;
18623;SDS011;9441;51.420;7.036;2022-09-27T02:30:26;21.20;;;10.67;;
18623;SDS011;9441;51.420;7.036;2022-09-27T02:31:36;21.57;;;10.00;;
18623;SDS011;9441;51.420;7.036;2022-09-27T02:32:39;23.13;;;10.47;;
18623;SDS011;9441;51.420;7.036;2022-09-27T02:33:43;29.50;;;10.33;;
18623;SDS011;9441;51.420;7.036;2022-09-27T02:34:49;20.17;;;9.93;;
18623;SDS011;9441;51.420;7.036;2022-09-27T02:35:51;26.77;;;10.93;;
18623;SDS011;9441;51.420;7.036;2022-09-27T02:36:54;23.10;;;11.20;;
18623;SDS011;9441;51.420;7.036;2022-09-27T02:37:55;24.10;;;10.53;;
18623;SDS011;9441;51.420;7.036;2022-09-27T02:38:59;28.67;;;11.87;;
18623;SDS011;9441;51.420;7.036;2022-09-27T02:40:02;27.50;;;11.73;;
18623;SDS011;9441;51.420;7.036;2022-09-27T02:41:11;27.23;;;13.07;;
18623;SDS011;9441;51.420;7.036;2022-09-27T02:42:13;23.87;;;12.60;;
18623;SDS011;9441;51.420;7.036;2022-09-27T02:43:16;25.97;;;13.47;;
18623;SDS011;9441;51.420;7.036;2022-09-27T02:44:20;28.00;;;14.20;;
18623;SDS011;9441;51.420;7.036;2022-09-27T02:45:22;29.50;;;13.07;;
18623;SDS011;9441;51.420;7.036;2022-09-27T02:46:38;24.70;;;13.47;;
18623;SDS011;9441;51.420;7.036;2022-09-27T02:47:59;29.70;;;13.07;;
18623;SDS011;9441;51.420;7.036;2022-09-27T02:49:19;29.37;;;13.47;;
18623;SDS011;9441;51.420;7.036;2022-09-27T02:50:57;24.13;;;13.00;;
18623;SDS011;9441;51.420;7.036;2022-09-27T02:52:18;36.90;;;13.37;;
18623;SDS011;9441;51.420;7.036;2022-09-27T02:53:31;24.10;;;12.10;;
18623;SDS011;9441;51.420;7.036;2022-09-27T02:55:03;29.00;;;12.73;;
18623;SDS011;9441;51.420;7.036;2022-09-27T02:56:26;28.33;;;12.40;;
18623;SDS011;9441;51.420;7.036;2022-09-27T02:57:53;26.27;;;12.63;;
18623;SDS011;9441;51.420;7.036;2022-09-27T02:59:25;24.87;;;12.47;;
18623;SDS011;9441;51.420;7.036;2022-09-27T03:00:53;20.57;;;11.43;;
18623;SDS011;9441;51.420;7.036;2022-09-27T03:02:20;28.70;;;12.07;;
18623;SDS011;9441;51.420;7.036;2022-09-27T03:03:51;31.03;;;11.73;;
18623;SDS011;9441;51.420;7.036;2022-09-27T03:05:00;29.23;;;12.13;;
18623;SDS011;9441;51.420;7.036;2022-09-27T03:06:05;22.50;;;12.43;;
18623;SDS011;9441;51.420;7.036;2022-09-27T03:07:09;25.07;;;13.13;;
18623;SDS011;9441;51.420;7.036;2022-09-27T03:08:13;23.83;;;13.00;;
18623;SDS011;9441;51.420;7.036;2022-09-27T03:09:19;26.03;;;12.30;;
18623;SDS011;9441;51.420;7.036;2022-09-27T03:10:23;25.90;;;12.73;;
18623;SDS011;9441;51.420;7.036;2022-09-27T03:11:27;29.07;;;13.17;;
18623;SDS011;9441;51.420;7.036;2022-09-27T03:12:28;32.83;;;12.37;;
18623;SDS011;9441;51.420;7.036;2022-09-27T03:13:30;24.90;;;12.17;;
18623;SDS011;9441;51.420;7.036;2022-09-27T03:14:34;27.93;;;12.20;;
18623;SDS011;9441;51.420;7.036;2022-09-27T03:15:59;25.20;;;11.53;;
18623;SDS011;9441;51.420;7.036;2022-09-27T03:17:25;22.83;;;11.47;;
18623;SDS011;9441;51.420;7.036;2022-09-27T03:18:29;21.57;;;11.53;;
18623;SDS011;9441;51.420;7.036;2022-09-27T03:19:52;23.00;;;11.33;;
18623;SDS011;9441;51.420;7.036;2022-09-27T03:21:17;21.57;;;11.33;;
18623;SDS011;9441;51.420;7.036;2022-09-27T03:22:20;22.60;;;12.13;;
18623;SDS011;9441;51.420;7.036;2022-09-27T03:23:21;27.13;;;12.00;;
18623;SDS011;9441;51.420;7.036;2022-09-27T03:24:23;28.50;;;12.07;;
18623;SDS011;9441;51.420;7.036;2022-09-27T03:25:25;23.30;;;12.00;;
18623;SDS011;9441;51.420;7.036;2022-09-27T03:26:27;22.43;;;12.53;;
18623;SDS011;9441;51.420;7.036;2022-09-27T03:27:28;25.07;;;11.70;;
18623;SDS011;9441;51.420;7.036;2022-09-27T03:28:30;22.37;;;11.33;;
18623;SDS011;9441;51.420;7.036;2022-09-27T03:29:32;22.53;;;12.10;;
18623;SDS011;9441;51.420;7.036;2022-09-27T03:30:39;23.63;;;11.70;;
18623;SDS011;9441;51.420;7.036;2022-09-27T03:31:41;27.37;;;11.10;;
18623;SDS011;9441;51.420;7.036;2022-09-27T03:33:14;20.07;;;9.83;;
18623;SDS011;9441;51.420;7.036;2022-09-27T03:34:28;23.77;;;10.47;;
18623;SDS011;9441;51.420;7.036;2022-09-27T03:35:29;17.87;;;9.40;;
18623;SDS011;9441;51.420;7.036;2022-09-27T03:36:33;18.57;;;9.80;;
18623;SDS011;9441;51.420;7.036;2022-09-27T03:37:35;21.00;;;9.53;;
18623;SDS011;9441;51.420;7.036;2022-09-27T03:38:37;21.13;;;9.87;;
18623;SDS011;9441;51.420;7.036;2022-09-27T03:39:42;18.17;;;9.13;;
18623;SDS011;9441;51.420;7.036;2022-09-27T03:40:43;18.10;;;8.40;;
18623;SDS011;9441;51.420;7.036;2022-09-27T03:41:46;22.67;;;9.70;;
18623;SDS011;9441;51.420;7.036;2022-09-27T03:42:47;17.53;;;8.80;;
18623;SDS011;9441;51.420;7.036;2022-09-27T03:43:50;18.10;;;8.40;;
18623;SDS011;9441;51.420;7.036;2022-09-27T03:44:52;25.97;;;8.77;;
18623;SDS011;9441;51.420;7.036;2022-09-27T03:45:54;26.57;;;8.90;;
18623;SDS011;9441;51.420;7.036;2022-09-27T03:46:55;18.93;;;8.40;;
18623;SDS011;9441;51.420;7.036;2022-09-27T03:47:58;17.43;;;9.00;;
18623;SDS011;9441;51.420;7.036;2022-09-27T03:49:00;18.30;;;8.83;;
18623;SDS011;9441;51.420;7.036;2022-09-27T03:50:03;20.07;;;9.97;;
18623;SDS011;9441;51.420;7.036;2022-09-27T03:51:04;22.07;;;10.57;;
18623;SDS011;9441;51.420;7.036;2022-09-27T03:52:08;21.03;;;10.80;;
18623;SDS011;9441;51.420;7.036;2022-09-27T03:53:09;27.27;;;11.60;;
18623;SDS011;9441;51.420;7.036;2022-09-27T03:54:11;25.63;;;11.57;;
18623;SDS011;9441;51.420;7.036;2022-09-27T03:55:12;24.03;;;11.17;;
18623;SDS011;9441;51.420;7.036;2022-09-27T03:56:15;25.23;;;12.10;;
18623;SDS011;9441;51.420;7.036;2022-09-27T03:57:16;32.50;;;13.80;;
18623;SDS011;9441;51.420;7.036;2022-09-27T03:58:18;29.53;;;14.00;;
18623;SDS011;9441;51.420;7.036;2022-09-27T03:59:20;30.57;;;13.50;;
18623;SDS011;9441;51.420;7.036;2022-09-27T04:00:40;25.83;;;12.90;;
18623;SDS011;9441;51.420;7.036;2022-09-27T04:01:43;29.07;;;13.47;;
18623;SDS011;9441;51.420;7.036;2022-09-27T04:03:04;30.93;;;14.97;;
18623;SDS011;9441;51.420;7.036;2022-09-27T04:04:26;27.03;;;13.87;;
18623;SDS011;9441;51.420;7.036;2022-09-27T04:05:28;31.63;;;14.10;;
18623;SDS011;9441;51.420;7.036;2022-09-27T04:06:40;30.87;;;15.03;;
18623;SDS011;9441;51.420;7.036;2022-09-27T04:07:44;33.23;;;15.83;;
18623;SDS011;9441;51.420;7.036;2022-09-27T04:08:47;31.10;;;15.53;;
18623;SDS011;9441;51.420;7.036;2022-09-27T04:09:50;29.90;;;15.40;;
18623;SDS011;9441;51.420;7.036;2022-09-27T04:10:51;34.83;;;14.73;;
18623;SDS011;9441;51.420;7.036;2022-09-27T04:11:53;36.20;;;15.93;;
18623;SDS011;9441;51.420;7.036;2022-09-27T04:12:55;32.27;;;15.20;;
18623;SDS011;9441;51.420;7.036;2022-09-27T04:14:00;32.53;;;16.20;;
18623;SDS011;9441;51.420;7.036;2022-09-27T04:15:08;34.43;;;15.60;;
18623;SDS011;9441;51.420;7.036;2022-09-27T04:16:33;39.80;;;16.43;;
18623;SDS011;9441;51.420;7.036;2022-09-27T04:17:54;32.20;;;16.70;;
18623;SDS011;9441;51.420;7.036;2022-09-27T04:19:08;34.23;;;16.90;;
18623;SDS011;9441;51.420;7.036;2022-09-27T04:20:21;37.00;;;16.67;;
18623;SDS011;9441;51.420;7.036;2022-09-27T04:21:22;36.23;;;17.03;;
18623;SDS011;9441;51.420;7.036;2022-09-27T04:22:26;34.73;;;16.63;;
18623;SDS011;9441;51.420;7.036;2022-09-27T04:23:27;32.20;;;16.20;;
18623;SDS011;9441;51.420;7.036;2022-09-27T04:24:30;38.60;;;16.00;;
18623;SDS011;9441;51.420;7.036;2022-09-27T04:25:49;29.73;;;14.50;;
18623;SDS011;9441;51.420;7.036;2022-09-27T04:27:04;29.13;;;14.60;;
18623;SDS011;9441;51.420;7.036;2022-09-27T04:28:07;28.07;;;14.73;;
18623;SDS011;9441;51.420;7.036;2022-09-27T04:29:08;32.10;;;15.33;;
18623;SDS011;9441;51.420;7.036;2022-09-27T04:30:15;32.97;;;14.30;;
18623;SDS011;9441;51.420;7.036;2022-09-27T04:31:38;35.27;;;14.27;;
18623;SDS011;9441;51.420;7.036;2022-09-27T04:32:59;26.00;;;13.07;;
18623;SDS011;9441;51.420;7.036;2022-09-27T04:34:22;31.70;;;13.97;;
18623;SDS011;9441;51.420;7.036;2022-09-27T04:35:49;26.93;;;13.67;;
18623;SDS011;9441;51.420;7.036;2022-09-27T04:37:12;26.17;;;13.00;;
18623;SDS011;9441;51.420;7.036;2022-09-27T04:38:17;27.17;;;12.23;;
18623;SDS011;9441;51.420;7.036;2022-09-27T04:39:20;27.77;;;13.30;;
18623;SDS011;9441;51.420;7.036;2022-09-27T04:40:21;26.43;;;12.43;;
18623;SDS011;9441;51.420;7.036;2022-09-27T04:41:24;26.70;;;12.10;;
18623;SDS011;9441;51.420;7.036;2022-09-27T04:42:25;28.10;;;13.23;;
18623;SDS011;9441;51.420;7.036;2022-09-27T04:43:28;30.77;;;14.33;;
18623;SDS011;9441;51.420;7.036;2022-09-27T04:44:29;30.87;;;12.63;;
18623;SDS011;9441;51.420;7.036;2022-09-27T04:45:31;26.83;;;13.47;;
18623;SDS011;9441;51.420;7.036;2022-09-27T04:46:32;27.17;;;12.53;;
18623;SDS011;9441;51.420;7.036;2022-09-27T04:47:35;29.60;;;12.93;;
18623;SDS011;9441;51.420;7.036;2022-09-27T04:48:37;28.77;;;13.13;;
18623;SDS011;9441;51.420;7.036;2022-09-27T04:49:39;28.53;;;13.07;;
18623;SDS011;9441;51.420;7.036;2022-09-27T04:50:40;32.57;;;14.50;;
18623;SDS011;9441;51.420;7.036;2022-09-27T04:51:43;28.93;;;12.87;;
18623;SDS011;9441;51.420;7.036;2022-09-27T04:52:48;25.27;;;12.53;;
18623;SDS011;9441;51.420;7.036;2022-09-27T04:53:52;28.07;;;13.17;;
18623;SDS011;9441;51.420;7.036;2022-09-27T04:54:55;28.43;;;12.43;;
18623;SDS011;9441;51.420;7.036;2022-09-27T04:55:57;28.70;;;11.60;;
18623;SDS011;9441;51.420;7.036;2022-09-27T04:57:01;31.33;;;12.37;;
18623;SDS011;9441;51.420;7.036;2022-09-27T04:58:03;28.27;;;11.93;;
18623;SDS011;9441;51.420;7.036;2022-09-27T04:59:05;31.60;;;12.53;;
18623;SDS011;9441;51.420;7.036;2022-09-27T05:00:07;31.07;;;11.67;;
18623;SDS011;9441;51.420;7.036;2022-09-27T05:01:10;28.07;;;11.87;;
18623;SDS011;9441;51.420;7.036;2022-09-27T05:02:33;27.47;;;12.60;;
18623;SDS011;9441;51.420;7.036;2022-09-27T05:04:01;24.90;;;12.03;;
18623;SDS011;9441;51.420;7.036;2022-09-27T05:05:04;27.27;;;12.27;;
18623;SDS011;9441;51.420;7.036;2022-09-27T05:06:10;23.97;;;11.93;;
18623;SDS011;9441;51.420;7.036;2022-09-27T05:07:13;31.73;;;11.37;;
18623;SDS011;9441;51.420;7.036;2022-09-27T05:08:18;24.23;;;11.50;;
18623;SDS011;9441;51.420;7.036;2022-09-27T05:09:59;28.00;;;11.80;;
18623;SDS011;9441;51.420;7.036;2022-09-27T05:11:02;23.80;;;10.90;;
18623;SDS011;9441;51.420;7.036;2022-09-27T05:12:04;21.43;;;10.13;;
18623;SDS011;9441;51.420;7.036;2022-09-27T05:13:17;26.27;;;10.53;;
18623;SDS011;9441;51.420;7.036;2022-09-27T05:14:19;25.63;;;11.13;;
18623;SDS011;9441;51.420;7.036;2022-09-27T05:15:30;25.50;;;11.80;;
18623;SDS011;9441;51.420;7.036;2022-09-27T05:16:52;23.50;;;11.43;;
18623;SDS011;9441;51.420;7.036;2022-09-27T05:18:17;23.93;;;10.50;;
18623;SDS011;9441;51.420;7.036;2022-09-27T05:19:39;22.50;;;11.07;;
18623;SDS011;9441;51.420;7.036;2022-09-27T05:20:54;29.87;;;11.37;;
18623;SDS011;9441;51.420;7.036;2022-09-27T05:22:05;23.40;;;10.53;;
18623;SDS011;9441;51.420;7.036;2022-09-27T05:23:07;26.10;;;11.03;;
18623;SDS011;9441;51.420;7.036;2022-09-27T05:24:09;23.97;;;10.63;;
18623;SDS011;9441;51.420;7.036;2022-09-27T05:25:12;25.20;;;11.13;;
18623;SDS011;9441;51.420;7.036;2022-09-27T05:26:13;23.43;;;9.47;;
18623;SDS011;9441;51.420;7.036;2022-09-27T05:27:15;27.87;;;10.87;;
18623;SDS011;9441;51.420;7.036;2022-09-27T05:28:20;21.27;;;9.57;;
18623;SDS011;9441;51.420;7.036;2022-09-27T05:29:23;22.07;;;9.30;;
18623;SDS011;9441;51.420;7.036;2022-09-27T05:30:39;23.33;;;9.87;;
18623;SDS011;9441;51.420;7.036;2022-09-27T05:31:46;19.53;;;9.60;;
18623;SDS011;9441;51.420;7.036;2022-09-27T05:32:47;22.40;;;10.80;;
18623;SDS011;9441;51.420;7.036;2022-09-27T05:34:08;25.43;;;11.20;;
18623;SDS011;9441;51.420;7.036;2022-09-27T05:35:16;28.37;;;11.70;;
18623;SDS011;9441;51.420;7.036;2022-09-27T05:36:18;29.27;;;11.67;;
18623;SDS011;9441;51.420;7.036;2022-09-27T05:37:20;29.73;;;12.03;;
18623;SDS011;9441;51.420;7.036;2022-09-27T05:38:24;26.73;;;11.50;;
18623;SDS011;9441;51.420;7.036;2022-09-27T05:39:28;26.30;;;11.53;;
18623;SDS011;9441;51.420;7.036;2022-09-27T05:40:30;25.70;;;11.17;;
18623;SDS011;9441;51.420;7.036;2022-09-27T05:41:33;27.53;;;10.37;;
18623;SDS011;9441;51.420;7.036;2022-09-27T05:42:34;25.17;;;10.90;;
18623;SDS011;9441;51.420;7.036;2022-09-27T05:43:38;21.70;;;10.10;;
18623;SDS011;9441;51.420;7.036;2022-09-27T05:44:39;24.93;;;10.17;;
18623;SDS011;9441;51.420;7.036;2022-09-27T05:45:42;21.70;;;9.73;;
18623;SDS011;9441;51.420;7.036;2022-09-27T05:46:44;22.97;;;8.63;;
18623;SDS011;9441;51.420;7.036;2022-09-27T05:47:53;23.77;;;9.10;;
18623;SDS011;9441;51.420;7.036;2022-09-27T05:48:55;19.90;;;7.80;;
18623;SDS011;9441;51.420;7.036;2022-09-27T05:49:57;18.33;;;7.53;;
18623;SDS011;9441;51.420;7.036;2022-09-27T05:51:00;15.57;;;7.07;;
18623;SDS011;9441;51.420;7.036;2022-09-27T05:52:04;15.83;;;6.53;;
18623;SDS011;9441;51.420;7.036;2022-09-27T05:53:05;15.87;;;6.13;;
18623;SDS011;9441;51.420;7.036;2022-09-27T05:54:09;17.20;;;6.03;;
18623;SDS011;9441;51.420;7.036;2022-09-27T05:55:10;14.57;;;5.47;;
18623;SDS011;9441;51.420;7.036;2022-09-27T05:56:13;15.63;;;5.93;;
18623;SDS011;9441;51.420;7.036;2022-09-27T05:57:55;13.97;;;5.20;;
18623;SDS011;9441;51.420;7.036;2022-09-27T05:59:04;14.57;;;5.47;;
18623;SDS011;9441;51.420;7.036;2022-09-27T06:00:26;17.03;;;5.77;;
18623;SDS011;9441;51.420;7.036;2022-09-27T06:01:29;20.47;;;6.13;;
18623;SDS011;9441;51.420;7.036;2022-09-27T06:02:53;13.97;;;6.00;;
18623;SDS011;9441;51.420;7.036;2022-09-27T06:04:15;14.80;;;6.30;;
18623;SDS011;9441;51.420;7.036;2022-09-27T06:05:49;12.80;;;6.40;;
18623;SDS011;9441;51.420;7.036;2022-09-27T06:07:11;16.43;;;6.70;;
18623;SDS011;9441;51.420;7.036;2022-09-27T06:08:12;19.90;;;7.10;;
18623;SDS011;9441;51.420;7.036;2022-09-27T06:09:20;21.57;;;7.17;;
18623;SDS011;9441;51.420;7.036;2022-09-27T06:10:22;18.27;;;7.13;;
18623;SDS011;9441;51.420;7.036;2022-09-27T06:11:25;19.00;;;7.70;;
18623;SDS011;9441;51.420;7.036;2022-09-27T06:12:26;21.43;;;7.87;;
18623;SDS011;9441;51.420;7.036;2022-09-27T06:13:29;16.03;;;7.43;;
18623;SDS011;9441;51.420;7.036;2022-09-27T06:14:30;22.20;;;7.87;;
18623;SDS011;9441;51.420;7.036;2022-09-27T06:15:42;23.97;;;8.00;;
18623;SDS011;9441;51.420;7.036;2022-09-27T06:16:45;19.27;;;7.33;;
18623;SDS011;9441;51.420;7.036;2022-09-27T06:17:48;18.50;;;7.60;;
18623;SDS011;9441;51.420;7.036;2022-09-27T06:18:53;23.27;;;7.33;;
18623;SDS011;9441;51.420;7.036;2022-09-27T06:19:56;21.23;;;7.33;;
18623;SDS011;9441;51.420;7.036;2022-09-27T06:20:57;24.87;;;8.27;;
18623;SDS011;9441;51.420;7.036;2022-09-27T06:22:01;13.87;;;6.63;;
18623;SDS011;9441;51.420;7.036;2022-09-27T06:23:11;21.50;;;7.13;;
18623;SDS011;9441;51.420;7.036;2022-09-27T06:24:16;17.27;;;6.67;;
18623;SDS011;9441;51.420;7.036;2022-09-27T06:25:20;21.07;;;6.70;;
18623;SDS011;9441;51.420;7.036;2022-09-27T06:26:51;17.33;;;6.90;;
18623;SDS011;9441;51.420;7.036;2022-09-27T06:28:10;14.97;;;6.90;;
18623;SDS011;9441;51.420;7.036;2022-09-27T06:29:15;16.27;;;6.90;;
18623;SDS011;9441;51.420;7.036;2022-09-27T06:30:30;25.13;;;7.37;;
18623;SDS011;9441;51.420;7.036;2022-09-27T06:31:39;19.40;;;6.93;;
18623;SDS011;9441;51.420;7.036;2022-09-27T06:32:57;18.97;;;6.53;;
18623;SDS011;9441;51.420;7.036;2022-09-27T06:34:13;19.53;;;7.20;;
18623;SDS011;9441;51.420;7.036;2022-09-27T06:35:15;14.20;;;6.37;;
18623;SDS011;9441;51.420;7.036;2022-09-27T06:36:17;16.80;;;6.93;;
18623;SDS011;9441;51.420;7.036;2022-09-27T06:37:23;22.67;;;7.57;;
18623;SDS011;9441;51.420;7.036;2022-09-27T06:38:24;17.33;;;8.83;;
18623;SDS011;9441;51.420;7.036;2022-09-27T06:39:56;26.77;;;10.77;;
18623;SDS011;9441;51.420;7.036;2022-09-27T06:41:18;24.40;;;9.70;;
18623;SDS011;9441;51.420;7.036;2022-09-27T06:42:39;21.40;;;9.30;;
18623;SDS011;9441;51.420;7.036;2022-09-27T06:43:50;43.33;;;19.57;;
18623;SDS011;9441;51.420;7.036;2022-09-27T06:45:12;23.67;;;9.57;;
18623;SDS011;9441;51.420;7.036;2022-09-27T06:46:33;18.50;;;8.20;;
18623;SDS011;9441;51.420;7.036;2022-09-27T06:47:56;19.80;;;7.50;;
18623;SDS011;9441;51.420;7.036;2022-09-27T06:49:02;15.23;;;6.23;;
18623;SDS011;9441;51.420;7.036;2022-09-27T06:50:06;20.57;;;6.73;;
18623;SDS011;9441;51.420;7.036;2022-09-27T06:51:08;17.87;;;6.17;;